createdAt,value
2023-04-06T00:01:01.097Z,50.61
2023-04-06T00:04:43.863Z,50.47
2023-04-06T00:08:27.310Z,50.55
2023-04-06T00:12:10.054Z,50.76
2023-04-06T00:15:52.803Z,50.77
2023-04-06T00:19:37.011Z,50.84
2023-04-06T00:23:19.933Z,51.21
2023-04-06T00:27:03.095Z,51.44
2023-04-06T00:30:45.832Z,51.54
2023-04-06T00:34:28.595Z,51.36
2023-04-06T00:38:12.670Z,51.74
2023-04-06T00:41:56.042Z,51.50
2023-04-06T00:45:40.459Z,53.02
2023-04-06T00:49:23.233Z,53.05
2023-04-06T00:53:06.125Z,52.72
2023-04-06T00:56:50.254Z,52.56
2023-04-06T01:00:34.142Z,52.82
2023-04-06T01:04:17.224Z,53.55
2023-04-06T01:07:59.972Z,53.70
2023-04-06T01:11:42.712Z,54.91
2023-04-06T01:15:27.985Z,56.00
2023-04-06T01:19:13.050Z,55.56
2023-04-06T01:22:57.150Z,55.34
2023-04-06T01:26:40.469Z,54.65
2023-04-06T01:30:26.170Z,53.81
2023-04-06T01:34:09.047Z,53.32
2023-04-06T01:37:51.834Z,52.98
2023-04-06T01:41:36.072Z,53.01
2023-04-06T01:45:18.778Z,53.43
2023-04-06T01:49:01.594Z,53.81
2023-04-06T01:52:44.341Z,53.52
2023-04-06T01:56:27.481Z,53.46
2023-04-06T02:00:13.217Z,53.75
2023-04-06T02:03:56.034Z,54.10
2023-04-06T02:07:38.874Z,53.96
2023-04-06T02:11:21.613Z,54.75
2023-04-06T02:15:04.628Z,55.03
2023-04-06T02:18:48.759Z,55.67
2023-04-06T02:22:31.478Z,55.45
2023-04-06T02:26:14.171Z,55.83
2023-04-06T02:29:56.906Z,56.04
2023-04-06T02:33:39.695Z,55.89
2023-04-06T02:37:24.929Z,55.63
2023-04-06T02:41:07.737Z,56.16
2023-04-06T02:44:50.657Z,56.83
2023-04-06T02:48:36.942Z,56.88
2023-04-06T02:52:19.916Z,57.50
2023-04-06T02:56:04.125Z,58.08
2023-04-06T02:59:46.948Z,58.44
2023-04-06T03:03:29.732Z,58.23
2023-04-06T03:07:12.917Z,58.16
2023-04-06T03:10:55.899Z,57.28
2023-04-06T03:14:40.016Z,57.56
2023-04-06T03:18:23.948Z,58.17
2023-04-06T03:22:06.699Z,57.41
2023-04-06T03:25:49.457Z,57.23
2023-04-06T03:29:32.278Z,57.50
2023-04-06T03:33:16.374Z,57.47
2023-04-06T03:37:09.355Z,57.25
2023-04-06T03:40:52.927Z,58.04
2023-04-06T03:44:35.722Z,58.42
2023-04-06T03:48:19.827Z,59.20
2023-04-06T03:52:03.156Z,59.17
2023-04-06T03:55:46.018Z,59.27
2023-04-06T03:59:28.863Z,59.66
2023-04-06T04:03:11.748Z,59.94
2023-04-06T04:06:56.106Z,59.67
2023-04-06T04:10:38.878Z,59.84
2023-04-06T04:14:21.615Z,59.57
2023-04-06T04:18:04.595Z,60.66
2023-04-06T04:21:48.605Z,61.08
2023-04-06T04:25:32.736Z,60.62
2023-04-06T04:29:16.293Z,60.08
2023-04-06T04:32:59.256Z,59.67
2023-04-06T04:36:43.015Z,59.42
2023-04-06T04:40:25.810Z,58.96
2023-04-06T04:44:12.820Z,59.05
2023-04-06T04:47:55.780Z,59.99
2023-04-06T04:51:38.647Z,59.54
2023-04-06T04:55:21.509Z,59.89
2023-04-06T04:59:04.307Z,60.01
2023-04-06T05:02:48.529Z,60.33
2023-04-06T05:06:31.932Z,59.98
2023-04-06T05:10:14.855Z,59.68
2023-04-06T05:13:59.813Z,59.88
2023-04-06T05:17:43.307Z,59.58
2023-04-06T05:21:29.107Z,59.18
2023-04-06T05:25:12.013Z,59.01
2023-04-06T05:28:55.669Z,58.84
2023-04-06T05:32:38.783Z,58.50
2023-04-06T05:36:21.545Z,58.89
2023-04-06T05:40:09.220Z,58.29
2023-04-06T05:43:51.970Z,58.72
2023-04-06T05:47:34.780Z,83.13
2023-04-06T05:51:17.595Z,55.42
2023-04-06T05:55:00.336Z,53.73
2023-04-06T05:58:44.675Z,54.75
2023-04-06T06:02:27.563Z,55.11
2023-04-06T06:06:10.396Z,55.65
2023-04-06T06:09:53.114Z,55.60
2023-04-06T06:13:35.856Z,55.33
2023-04-06T06:17:20.034Z,55.73
2023-04-06T06:21:02.944Z,55.55
2023-04-06T06:24:45.927Z,55.73
2023-04-06T06:28:28.886Z,55.58
2023-04-06T06:32:11.680Z,55.46
2023-04-06T06:35:55.840Z,55.18
2023-04-06T06:39:38.585Z,54.96
2023-04-06T06:43:21.312Z,54.48
2023-04-06T06:47:04.080Z,54.82
2023-04-06T06:50:47.006Z,54.43
2023-04-06T06:54:34.242Z,54.32
2023-04-06T06:58:17.203Z,53.47
2023-04-06T07:01:59.928Z,53.00
2023-04-06T07:05:50.107Z,52.14
2023-04-06T07:09:34.430Z,52.32
2023-04-06T07:13:21.680Z,52.00
2023-04-06T07:17:04.574Z,51.00
2023-04-06T07:20:47.454Z,51.65
2023-04-06T07:24:30.370Z,51.57
2023-04-06T07:28:14.548Z,51.25
2023-04-06T07:31:57.669Z,50.62
2023-04-06T07:35:40.754Z,48.87
2023-04-06T07:39:23.504Z,48.46
2023-04-06T07:43:06.275Z,47.52
2023-04-06T07:46:50.399Z,47.31
2023-04-06T07:50:33.206Z,46.91
2023-04-06T07:54:15.997Z,46.79
2023-04-06T07:57:58.709Z,46.81
2023-04-06T08:01:41.468Z,46.45
2023-04-06T08:05:25.752Z,46.02
2023-04-06T08:09:08.498Z,45.91
2023-04-06T08:12:51.247Z,42.22
2023-04-06T08:16:33.947Z,42.96
2023-04-06T08:20:16.854Z,44.10
2023-04-06T08:24:01.024Z,43.03
2023-04-06T08:27:43.810Z,41.57
2023-04-06T08:31:27.262Z,42.35
2023-04-06T08:35:10.457Z,41.65
2023-04-06T08:38:53.440Z,40.96
2023-04-06T08:42:42.671Z,41.31
2023-04-06T08:46:30.398Z,40.73
2023-04-06T08:50:13.502Z,40.47
2023-04-06T08:53:57.112Z,40.35
2023-04-06T08:57:41.692Z,39.10
2023-04-06T09:01:27.613Z,38.72
2023-04-06T09:05:10.927Z,39.47
2023-04-06T09:08:53.690Z,39.99
2023-04-06T09:12:37.033Z,39.64
2023-04-06T09:16:21.621Z,39.40
2023-04-06T09:20:05.745Z,38.76
2023-04-06T09:23:49.602Z,39.10
2023-04-06T09:27:32.952Z,40.04
2023-04-06T09:31:16.086Z,39.52
2023-04-06T09:35:09.385Z,39.60
2023-04-06T09:38:56.854Z,36.98
2023-04-06T09:42:40.781Z,36.51
2023-04-06T09:46:24.594Z,36.81
2023-04-06T09:50:10.237Z,36.63
2023-04-06T09:53:55.563Z,37.73
2023-04-06T09:57:42.432Z,37.57
2023-04-06T10:01:28.824Z,37.22
2023-04-06T10:05:19.276Z,36.70
2023-04-06T10:09:04.285Z,36.52
2023-04-06T10:12:47.538Z,36.01
2023-04-06T10:16:30.942Z,36.65
2023-04-06T10:20:21.919Z,36.23
2023-04-06T10:24:10.895Z,36.02
2023-04-06T10:28:01.263Z,35.87
2023-04-06T10:31:45.626Z,36.20
2023-04-06T10:35:40.465Z,36.13
2023-04-06T10:39:28.051Z,36.53
2023-04-06T10:43:12.595Z,37.87
2023-04-06T10:46:56.054Z,37.30
2023-04-06T10:50:41.103Z,35.71
2023-04-06T10:54:26.067Z,36.11
2023-04-06T10:58:09.210Z,37.62
2023-04-06T11:01:52.032Z,36.51
2023-04-06T11:05:34.867Z,36.19
2023-04-06T11:09:27.963Z,36.21
2023-04-06T11:13:10.800Z,35.90
2023-04-06T11:16:53.623Z,35.12
2023-04-06T11:20:36.696Z,37.03
2023-04-06T11:24:21.208Z,35.15
2023-04-06T11:28:05.389Z,35.73
2023-04-06T11:31:48.889Z,34.17
2023-04-06T11:35:33.663Z,34.21
2023-04-06T11:39:21.142Z,34.70
2023-04-06T11:43:07.909Z,34.48
2023-04-06T11:46:54.487Z,34.42
2023-04-06T11:50:38.027Z,34.21
2023-04-06T11:54:31.995Z,34.46
2023-04-06T11:58:16.327Z,33.70
2023-04-06T12:01:59.389Z,35.09
2023-04-06T12:05:43.878Z,34.97
2023-04-06T12:09:29.172Z,33.24
2023-04-06T12:13:11.915Z,34.09
2023-04-06T12:16:56.087Z,32.36
2023-04-06T12:20:38.822Z,32.55
2023-04-06T12:24:21.622Z,33.43
2023-04-06T12:28:04.353Z,33.27
2023-04-06T12:31:47.351Z,33.42
2023-04-06T12:35:35.470Z,32.44
2023-04-06T12:39:21.791Z,30.75
2023-04-06T12:43:04.646Z,30.64
2023-04-06T12:46:47.715Z,30.00
2023-04-06T12:50:31.868Z,30.66
2023-04-06T12:54:14.876Z,31.11
2023-04-06T12:57:57.629Z,30.65
2023-04-06T13:01:40.359Z,31.79
2023-04-06T13:05:23.122Z,32.17
2023-04-06T13:09:08.744Z,31.76
2023-04-06T13:12:53.564Z,31.12
2023-04-06T13:16:37.451Z,31.91
2023-04-06T13:20:20.265Z,31.94
2023-04-06T13:24:03.032Z,29.93
2023-04-06T13:27:49.547Z,30.00
2023-04-06T13:31:35.400Z,28.58
2023-04-06T13:35:18.783Z,29.32
2023-04-06T13:39:01.539Z,29.93
2023-04-06T13:42:46.033Z,29.99
2023-04-06T13:46:30.331Z,31.01
2023-04-06T13:50:13.232Z,27.87
2023-04-06T13:53:56.088Z,27.99
2023-04-06T13:57:38.816Z,27.71
2023-04-06T14:01:21.532Z,27.17
2023-04-06T14:05:06.272Z,27.63
2023-04-06T14:08:49.230Z,29.16
2023-04-06T14:12:32.694Z,28.66
2023-04-06T14:16:16.249Z,28.93
2023-04-06T14:19:58.907Z,31.45
2023-04-06T14:23:43.216Z,30.68
2023-04-06T14:27:26.322Z,28.43
2023-04-06T14:31:14.062Z,28.77
2023-04-06T14:34:56.803Z,28.78
2023-04-06T14:38:40.436Z,28.96
2023-04-06T14:42:24.534Z,29.04
2023-04-06T14:46:09.418Z,29.48
2023-04-06T14:49:54.203Z,30.23
2023-04-06T14:53:36.874Z,30.54
2023-04-06T14:57:19.629Z,29.71
2023-04-06T15:01:04.090Z,28.87
2023-04-06T15:04:46.766Z,28.05
2023-04-06T15:08:29.421Z,27.96
2023-04-06T15:12:12.079Z,27.33
2023-04-06T15:15:54.815Z,27.06
2023-04-06T15:19:38.946Z,26.07
2023-04-06T15:23:21.628Z,26.16
2023-04-06T15:27:04.279Z,27.19
2023-04-06T15:30:46.952Z,28.08
2023-04-06T15:34:31.320Z,27.35
2023-04-06T15:38:15.792Z,26.45
2023-04-06T15:41:58.471Z,25.41
2023-04-06T15:45:41.734Z,25.34
2023-04-06T15:49:24.415Z,24.56
2023-04-06T15:53:07.273Z,26.00
2023-04-06T15:56:51.549Z,26.69
2023-04-06T16:00:34.687Z,27.16
2023-04-06T16:04:17.409Z,27.19
2023-04-06T16:08:00.143Z,27.64
2023-04-06T16:11:42.837Z,27.60
2023-04-06T16:15:27.025Z,26.36
2023-04-06T16:19:09.717Z,27.02
2023-04-06T16:22:52.372Z,27.23
2023-04-06T16:26:35.530Z,26.83
2023-04-06T16:30:18.266Z,26.17
2023-04-06T16:34:02.296Z,26.99
2023-04-06T16:37:46.476Z,26.36
2023-04-06T16:41:29.524Z,26.66
2023-04-06T16:45:12.799Z,26.12
2023-04-06T16:48:55.843Z,26.40
2023-04-06T16:52:39.826Z,26.60
2023-04-06T16:56:22.721Z,26.66
2023-04-06T17:00:07.458Z,27.97
2023-04-06T17:03:50.675Z,28.08
2023-04-06T17:07:35.602Z,27.98
2023-04-06T17:11:25.496Z,28.94
2023-04-06T17:15:11.743Z,29.67
2023-04-06T17:18:54.410Z,30.10
2023-04-06T17:22:37.145Z,30.37
2023-04-06T17:26:21.577Z,31.92
2023-04-06T17:30:06.642Z,35.49
2023-04-06T17:33:49.748Z,31.00
2023-04-06T17:37:32.754Z,31.42
2023-04-06T17:41:16.100Z,31.56
2023-04-06T17:45:00.527Z,32.77
2023-04-06T17:48:43.907Z,34.71
2023-04-06T17:52:27.324Z,35.09
2023-04-06T17:56:09.977Z,33.01
2023-04-06T17:59:53.863Z,35.28
2023-04-06T18:03:38.329Z,34.64
2023-04-06T18:07:21.101Z,35.64
2023-04-06T18:11:04.233Z,34.40
2023-04-06T18:14:46.884Z,33.59
2023-04-06T18:18:29.594Z,33.49
2023-04-06T18:22:13.553Z,33.70
2023-04-06T18:25:56.243Z,34.52
2023-04-06T18:29:38.912Z,34.84
2023-04-06T18:33:21.547Z,35.45
2023-04-06T18:37:04.267Z,36.45
2023-04-06T18:40:48.289Z,35.88
2023-04-06T18:44:31.569Z,35.92
2023-04-06T18:48:14.462Z,36.02
2023-04-06T18:51:59.261Z,36.12
2023-04-06T18:55:41.998Z,35.81
2023-04-06T18:59:30.065Z,36.58
2023-04-06T19:03:12.847Z,36.51
2023-04-06T19:06:55.746Z,36.46
2023-04-06T19:10:38.601Z,37.20
2023-04-06T19:14:21.245Z,37.37
2023-04-06T19:18:05.698Z,38.00
2023-04-06T19:21:49.034Z,38.29
2023-04-06T19:25:31.962Z,38.95
2023-04-06T19:29:14.602Z,38.89
2023-04-06T19:32:57.555Z,38.87
2023-04-06T19:36:41.697Z,38.51
2023-04-06T19:40:24.334Z,38.71
2023-04-06T19:44:07.016Z,38.61
2023-04-06T19:47:49.937Z,38.33
2023-04-06T19:51:33.578Z,38.79
2023-04-06T19:55:17.942Z,40.10
2023-04-06T19:59:00.902Z,40.02
2023-04-06T20:02:43.723Z,40.96
2023-04-06T20:06:26.677Z,42.26
2023-04-06T20:10:09.795Z,41.57
2023-04-06T20:13:53.760Z,41.78
2023-04-06T20:17:36.493Z,42.50
2023-04-06T20:21:19.184Z,42.00
2023-04-06T20:25:01.826Z,41.49
2023-04-06T20:28:44.502Z,41.34
2023-04-06T20:32:28.619Z,41.86
2023-04-06T20:36:11.412Z,41.63
2023-04-06T20:39:54.062Z,41.78
2023-04-06T20:43:36.688Z,41.85
2023-04-06T20:47:19.385Z,41.98
2023-04-06T20:51:04.026Z,42.26
2023-04-06T20:54:46.728Z,42.59
2023-04-06T20:58:29.387Z,42.12
2023-04-06T21:02:12.186Z,41.46
2023-04-06T21:05:55.857Z,41.50
2023-04-06T21:09:40.995Z,41.98
2023-04-06T21:13:23.634Z,42.11
2023-04-06T21:17:06.895Z,42.27
2023-04-06T21:20:49.864Z,42.65
2023-04-06T21:24:32.502Z,42.87
2023-04-06T21:28:16.555Z,42.62
2023-04-06T21:31:59.269Z,43.11
2023-04-06T21:35:42.246Z,43.94
2023-04-06T21:39:25.341Z,42.94
2023-04-06T21:43:08.028Z,42.44
2023-04-06T21:46:52.076Z,42.80
2023-04-06T21:50:34.727Z,42.82
2023-04-06T21:54:17.653Z,43.34
2023-04-06T21:58:00.910Z,43.30
2023-04-06T22:01:43.680Z,43.44
2023-04-06T22:05:27.719Z,43.91
2023-04-06T22:09:10.677Z,43.86
2023-04-06T22:12:53.403Z,43.93
2023-04-06T22:16:36.197Z,44.20
2023-04-06T22:20:18.981Z,44.12
2023-04-06T22:24:03.013Z,44.31
2023-04-06T22:27:45.717Z,44.05
2023-04-06T22:31:28.406Z,44.29
2023-04-06T22:35:11.293Z,44.21
2023-04-06T22:38:58.210Z,44.11
2023-04-06T22:42:42.283Z,44.11
2023-04-06T22:46:24.930Z,44.41
2023-04-06T22:50:09.277Z,44.23
2023-04-06T22:53:52.733Z,45.04
2023-04-06T22:57:35.427Z,44.94
2023-04-06T23:01:19.477Z,45.06
2023-04-06T23:05:02.170Z,45.35
2023-04-06T23:08:44.815Z,45.92
2023-04-06T23:12:27.521Z,45.90
2023-04-06T23:16:10.628Z,46.78
2023-04-06T23:19:54.723Z,46.61
2023-04-06T23:23:37.446Z,47.02
2023-04-06T23:27:20.131Z,47.31
2023-04-06T23:31:02.748Z,47.34
2023-04-06T23:34:45.621Z,47.58
2023-04-06T23:38:29.606Z,48.21
2023-04-06T23:42:12.253Z,48.20
2023-04-06T23:45:54.969Z,48.48
2023-04-06T23:49:37.606Z,48.82
2023-04-06T23:53:20.232Z,48.86
2023-04-06T23:57:04.501Z,49.06
